Time;durP1;ratioP1;P1;durP2;ratioP2;P2;SDS_P1;SDS_P2;PMS_P1;PMS_P2;Temp;Humidity;BMP_temperature;BMP_pressure;BME280_temperature;BME280_humidity;BME280_pressure;Samples;Min_cycle;Max_cycle;Signal;HPM_P1;HPM_P2
2023/02/08 00:00:49;;;;;;;13.30;6.30;;;;;;;-6.50;64.83;101392.09;79555;1298;3013698;-62
2023/02/08 00:03:16;;;;;;;10.50;5.40;;;;;;;-6.57;65.26;101389.77;79428;1295;3012172;-65
2023/02/08 00:05:44;;;;;;;9.90;5.10;;;;;;;-6.52;64.96;101383.84;78426;1294;3029422;-61
2023/02/08 00:08:11;;;;;;;9.90;5.00;;;;;;;-6.51;65.18;101392.21;79501;1295;3015936;-64
2023/02/08 00:10:38;;;;;;;10.30;4.80;;;;;;;-6.58;64.46;101391.79;79425;1295;3011782;-65
2023/02/08 00:13:07;;;;;;;13.70;5.50;;;;;;;-6.45;65.01;101394.84;78224;1298;3050799;-62
2023/02/08 00:15:34;;;;;;;10.10;5.10;;;;;;;-6.56;65.25;101402.42;79456;1297;3015162;-64
2023/02/08 00:18:06;;;;;;;10.90;5.10;;;;;;;-6.45;64.34;101397.77;78304;1298;3070371;-62
2023/02/08 00:20:32;;;;;;;9.00;4.90;;;;;;;-6.52;64.25;101401.91;79466;1294;3013374;-63
2023/02/08 00:22:59;;;;;;;17.70;6.40;;;;;;;-6.47;64.77;101403.82;79392;1297;3012175;-63
2023/02/08 00:25:27;;;;;;;11.00;5.80;;;;;;;-6.45;64.62;101406.10;78250;1295;3028649;-63
2023/02/08 00:27:53;;;;;;;13.50;5.90;;;;;;;-6.46;64.13;101411.86;79417;1295;3020536;-65
2023/02/08 00:30:20;;;;;;;13.10;6.20;;;;;;;-6.47;64.08;101410.13;79404;1295;3011803;-65
2023/02/08 00:32:49;;;;;;;12.20;5.50;;;;;;;-6.49;63.82;101413.09;78149;1297;3069202;-64
2023/02/08 00:35:15;;;;;;;17.10;7.30;;;;;;;-6.48;64.30;101411.63;79324;1296;3013252;-64
2023/02/08 00:37:42;;;;;;;14.70;5.70;;;;;;;-6.59;64.34;101410.82;79590;1298;3011781;-64
2023/02/08 00:40:10;;;;;;;14.40;6.50;;;;;;;-6.60;64.54;101413.66;78338;1295;3027997;-63
2023/02/08 00:42:37;;;;;;;13.80;5.60;;;;;;;-6.58;64.92;101418.39;79298;1298;3014528;-64
2023/02/08 00:45:04;;;;;;;12.60;5.70;;;;;;;-6.50;64.45;101415.14;79478;1298;3011721;-62
2023/02/08 00:47:33;;;;;;;8.40;4.50;;;;;;;-6.46;63.90;101409.48;78212;1298;3068238;-61
2023/02/08 00:49:59;;;;;;;10.20;4.70;;;;;;;-6.54;64.43;101412.90;79469;1295;3015974;-63
2023/02/08 00:52:26;;;;;;;12.30;5.50;;;;;;;-6.51;64.09;101413.70;79295;1294;3011726;-64
2023/02/08 00:54:54;;;;;;;13.10;6.00;;;;;;;-6.48;64.02;101420.65;78009;1301;3052629;-63
2023/02/08 00:57:21;;;;;;;10.20;5.70;;;;;;;-6.58;64.03;101426.23;79308;1301;3021100;-64
2023/02/08 00:59:47;;;;;;;12.30;5.60;;;;;;;-6.66;63.96;101421.99;79382;1295;3011850;-61
2023/02/08 01:02:16;;;;;;;12.50;6.10;;;;;;;-6.72;64.10;101421.55;78230;1297;3069393;-63
2023/02/08 01:04:45;;;;;;;10.30;5.60;;;;;;;-6.74;64.19;101424.20;79424;1294;3013115;-61
2023/02/08 01:07:21;;;;;;;14.70;5.80;;;;;;;-6.78;64.68;101421.30;78036;1294;3056596;-63
2023/02/08 01:09:47;;;;;;;12.70;5.80;;;;;;;-6.80;64.97;101424.14;79479;1297;3019167;-63
2023/02/08 01:12:15;;;;;;;14.40;6.70;;;;;;;-6.74;64.49;101423.88;79447;1296;3011946;-61
2023/02/08 01:14:43;;;;;;;19.30;7.20;;;;;;;-6.73;64.23;101425.44;78257;1298;3053892;-61
2023/02/08 01:17:10;;;;;;;16.70;7.20;;;;;;;-6.72;64.15;101429.41;79261;1296;3013215;-61
2023/02/08 01:19:36;;;;;;;18.90;8.60;;;;;;;-6.70;64.66;101424.90;79496;1295;3011552;-60
2023/02/08 01:22:04;;;;;;;19.80;9.00;;;;;;;-6.80;64.58;101433.16;78207;1297;3029068;-61
2023/02/08 01:24:32;;;;;;;15.90;7.90;;;;;;;-6.79;64.06;101433.02;79606;1294;3014388;-62
2023/02/08 01:26:59;;;;;;;18.50;7.30;;;;;;;-6.72;64.41;101433.32;79222;1295;3011789;-63
2023/02/08 01:29:27;;;;;;;20.20;7.40;;;;;;;-6.74;64.58;101439.70;78292;1298;3050755;-62
2023/02/08 01:31:54;;;;;;;18.20;8.20;;;;;;;-6.81;64.27;101437.89;79508;1297;3012917;-62
2023/02/08 01:34:20;;;;;;;17.90;8.00;;;;;;;-6.87;63.98;101441.90;79461;1297;3011887;-64
2023/02/08 01:36:49;;;;;;;15.00;7.70;;;;;;;-6.86;64.40;101440.77;78308;1298;3027310;-62
2023/02/08 01:39:15;;;;;;;23.50;9.50;;;;;;;-6.93;64.92;101442.67;79437;1295;3013851;-64
2023/02/08 01:41:43;;;;;;;19.60;9.00;;;;;;;-6.95;64.39;101445.48;79423;1295;3011667;-64
2023/02/08 01:44:11;;;;;;;20.80;9.10;;;;;;;-7.02;64.93;101446.08;78261;1297;3052650;-63
2023/02/08 01:46:43;;;;;;;16.90;7.10;;;;;;;-7.03;64.85;101442.96;79260;1301;3011432;-62
2023/02/08 01:49:28;;;;;;;18.20;8.40;;;;;;;-6.92;64.21;101447.46;78238;1296;3051401;-62
2023/02/08 01:52:05;;;;;;;18.90;8.30;;;;;;;-6.98;64.15;101448.95;77983;1299;3057812;-61
2023/02/08 01:54:43;;;;;;;19.40;8.00;;;;;;;-6.99;64.07;101449.26;78029;1301;3050479;-64
2023/02/08 01:57:11;;;;;;;16.50;8.30;;;;;;;-7.07;64.25;101459.13;78231;1297;3053058;-62
2023/02/08 01:59:50;;;;;;;19.30;8.20;;;;;;;-7.26;64.67;101459.31;79497;1295;3018565;-63
2023/02/08 02:02:20;;;;;;;20.40;7.90;;;;;;;-7.22;64.85;101465.11;78013;1301;3052776;-61
2023/02/08 02:04:47;;;;;;;16.00;7.50;;;;;;;-7.20;64.27;101469.48;79339;1296;3014843;-61
2023/02/08 02:07:15;;;;;;;23.90;8.90;;;;;;;-7.22;65.10;101471.57;79188;1294;3011782;-63
2023/02/08 02:09:56;;;;;;;22.20;8.70;;;;;;;-7.27;64.44;101471.52;78130;1299;3050520;-59
2023/02/08 02:12:29;;;;;;;15.90;8.10;;;;;;;-7.36;64.85;101482.23;78253;1296;3055095;-63
2023/02/08 02:14:56;;;;;;;18.50;8.10;;;;;;;-7.42;65.20;101483.48;79259;1301;3013598;-58
2023/02/08 02:17:23;;;;;;;20.40;8.40;;;;;;;-7.43;65.30;101483.42;79289;1297;3013036;-63
2023/02/08 02:19:59;;;;;;;17.40;7.20;;;;;;;-7.39;65.12;101483.96;78188;1298;3068824;-62
2023/02/08 02:22:30;;;;;;;15.30;6.90;;;;;;;-7.43;65.11;101486.85;78233;1294;3049850;-63
2023/02/08 02:25:32;;;;;;;17.50;7.80;;;;;;;-7.45;64.74;101492.86;79555;1297;3013418;-60
2023/02/08 02:28:20;;;;;;;17.10;7.70;;;;;;;-7.37;64.80;101494.61;78124;1298;3051577;-63
2023/02/08 02:30:50;;;;;;;17.90;8.10;;;;;;;-7.40;64.84;101498.38;78040;1299;3054021;-61
2023/02/08 02:33:42;;;;;;;18.20;8.00;;;;;;;-7.41;64.74;101502.40;79428;1295;3011831;-60
2023/02/08 02:36:32;;;;;;;19.60;8.80;;;;;;;-7.42;64.35;101504.92;78243;1295;3054419;-62
2023/02/08 02:39:22;;;;;;;18.40;8.40;;;;;;;-7.50;64.77;101509.68;78210;1297;3052941;-61
2023/02/08 02:44:57;;;;;;;14.90;7.50;;;;;;;-7.63;64.77;101519.12;77991;1298;3052889;-59
2023/02/08 02:48:10;;;;;;;16.50;7.20;;;;;;;-7.54;64.09;101516.32;78694;1295;3011591;-60
2023/02/08 02:50:46;;;;;;;20.50;7.70;;;;;;;-7.57;64.11;101522.80;78139;1298;3056922;-62
2023/02/08 02:53:32;;;;;;;15.30;7.50;;;;;;;-7.72;65.00;101526.55;78212;1295;3049687;-62
2023/02/08 02:56:09;;;;;;;14.10;7.20;;;;;;;-7.78;65.14;101530.01;78114;1297;3053522;-63
2023/02/08 02:58:37;;;;;;;20.90;8.00;;;;;;;-7.81;65.34;101536.33;78075;1298;3050431;-61
2023/02/08 03:01:04;;;;;;;21.80;8.00;;;;;;;-7.74;65.38;101540.06;79221;1300;3012888;-62
2023/02/08 03:03:32;;;;;;;19.30;7.90;;;;;;;-7.81;65.28;101540.10;79487;1295;3011579;-62
2023/02/08 03:06:15;;;;;;;20.00;9.80;;;;;;;-7.85;65.65;101544.14;78313;1293;3052752;-62
2023/02/08 03:09:02;;;;;;;21.80;8.30;;;;;;;-7.83;65.16;101544.45;77993;1301;3057258;-63
2023/02/08 03:11:32;;;;;;;21.80;8.50;;;;;;;-7.89;65.60;101545.52;78266;1297;3050609;-60
2023/02/08 03:14:20;;;;;;;20.20;8.90;;;;;;;-8.07;65.95;101550.92;79480;1295;3011681;-61
2023/02/08 03:17:37;;;;;;;20.90;9.10;;;;;;;-8.07;66.15;101550.09;78123;1295;3052870;-61
2023/02/08 03:20:10;;;;;;;16.10;8.10;;;;;;;-7.94;66.03;101558.34;78214;1295;3054104;-63
2023/02/08 03:22:58;;;;;;;23.40;9.80;;;;;;;-7.94;65.86;101553.42;79470;1298;3012042;-63
2023/02/08 03:25:35;;;;;;;20.00;8.90;;;;;;;-7.93;65.66;101545.64;78156;1298;3070227;-64
2023/02/08 03:28:25;;;;;;;19.90;8.40;;;;;;;-7.81;65.00;101548.09;78249;1294;3052297;-61
2023/02/08 03:31:02;;;;;;;19.80;7.90;;;;;;;-7.83;65.27;101542.35;78170;1295;3057799;-63
2023/02/08 03:33:35;;;;;;;13.80;7.20;;;;;;;-7.95;65.43;101545.19;78325;1293;3050721;-60
2023/02/08 03:36:26;;;;;;;17.90;8.00;;;;;;;-8.00;65.61;101551.45;79427;1293;3013601;-62
2023/02/08 03:38:53;;;;;;;20.30;7.70;;;;;;;-8.07;65.94;101549.70;78132;1295;3051369;-61
2023/02/08 03:41:30;;;;;;;17.40;7.60;;;;;;;-8.08;66.22;101553.60;79206;1301;3013699;-61
2023/02/08 03:44:23;;;;;;;21.00;8.30;;;;;;;-8.02;66.06;101562.39;78214;1293;3069074;-61
2023/02/08 03:46:53;;;;;;;11.80;6.60;;;;;;;-8.02;65.78;101558.67;78116;1298;3052346;-63
2023/02/08 03:49:26;;;;;;;16.70;7.50;;;;;;;-8.09;65.30;101568.68;79436;1295;3011655;-61
2023/02/08 03:51:56;;;;;;;14.90;7.80;;;;;;;-8.14;66.01;101568.97;78229;1294;3050014;-60
2023/02/08 03:54:24;;;;;;;16.90;7.50;;;;;;;-8.03;65.82;101573.60;79481;1295;3013566;-62
2023/02/08 03:57:01;;;;;;;16.30;8.10;;;;;;;-8.05;65.68;101577.56;78958;1298;3011516;-61
2023/02/08 03:59:31;;;;;;;14.20;6.10;;;;;;;-8.08;65.76;101577.94;78936;1298;3012906;-62
2023/02/08 04:02:02;;;;;;;19.60;8.10;;;;;;;-8.24;66.20;101582.77;79332;1294;3013494;-63
2023/02/08 04:04:33;;;;;;;19.10;7.90;;;;;;;-8.19;66.05;101580.80;78242;1298;3053683;-62
2023/02/08 04:07:00;;;;;;;16.40;7.70;;;;;;;-8.18;65.81;101583.56;79277;1296;3011791;-63
2023/02/08 04:09:29;;;;;;;17.70;7.50;;;;;;;-8.41;66.13;101583.11;78743;1294;3013571;-61
2023/02/08 04:11:55;;;;;;;12.70;6.40;;;;;;;-8.41;66.11;101585.48;79442;1297;3013377;-62
2023/02/08 04:14:22;;;;;;;21.70;7.60;;;;;;;-8.55;66.39;101589.41;79405;1294;3011839;-62
2023/02/08 04:16:50;;;;;;;20.40;8.60;;;;;;;-8.42;66.24;101593.59;78224;1298;3026408;-62
2023/02/08 04:19:17;;;;;;;17.10;7.00;;;;;;;-8.29;65.97;101591.33;79535;1298;3013205;-61
2023/02/08 04:21:43;;;;;;;20.10;9.00;;;;;;;-8.32;66.03;101594.45;79413;1295;3013438;-63
2023/02/08 04:24:11;;;;;;;18.50;8.50;;;;;;;-8.37;65.91;101594.34;78186;1297;3028229;-61
2023/02/08 04:26:38;;;;;;;22.30;9.20;;;;;;;-8.44;66.18;101598.93;79443;1295;3013383;-61
2023/02/08 04:29:05;;;;;;;21.20;10.40;;;;;;;-8.37;66.25;101606.11;79430;1297;3011778;-62
2023/02/08 04:31:32;;;;;;;21.20;9.40;;;;;;;-8.56;66.52;101615.55;78230;1297;3028799;-62
2023/02/08 04:33:59;;;;;;;19.50;8.60;;;;;;;-8.48;66.37;101621.19;79451;1297;3013233;-62
2023/02/08 04:36:25;;;;;;;21.70;9.30;;;;;;;-8.36;66.27;101623.12;79394;1295;3011639;-63
2023/02/08 04:38:53;;;;;;;20.70;8.20;;;;;;;-8.29;65.94;101626.23;78241;1295;3028687;-61
2023/02/08 04:41:20;;;;;;;22.80;9.50;;;;;;;-8.54;66.37;101630.22;79440;1297;3013221;-64
2023/02/08 04:43:46;;;;;;;20.90;9.80;;;;;;;-8.59;66.57;101631.70;79490;1296;3011668;-62
2023/02/08 04:46:14;;;;;;;26.90;10.30;;;;;;;-8.71;67.19;101637.54;78207;1298;3028538;-62
2023/02/08 04:48:41;;;;;;;21.80;9.50;;;;;;;-8.62;66.80;101630.84;79514;1298;3013218;-63
2023/02/08 04:51:07;;;;;;;22.50;10.10;;;;;;;-8.67;66.88;101638.05;79449;1295;3011990;-63
2023/02/08 04:53:36;;;;;;;22.40;9.50;;;;;;;-8.65;67.55;101638.35;78196;1294;3029260;-62
2023/02/08 04:56:03;;;;;;;25.80;10.50;;;;;;;-8.64;67.29;101648.10;79523;1295;3020556;-62
2023/02/08 04:58:29;;;;;;;24.00;10.70;;;;;;;-8.63;67.04;101657.64;79449;1294;3013673;-63
2023/02/08 05:00:57;;;;;;;20.10;8.30;;;;;;;-8.60;66.99;101650.69;78271;1298;3029660;-63
2023/02/08 05:03:25;;;;;;;16.40;6.80;;;;;;;-8.43;66.41;101654.41;79430;1298;3013563;-64
2023/02/08 05:05:58;;;;;;;21.60;8.90;;;;;;;-7.52;64.85;101660.27;79486;1295;3011611;-63
2023/02/08 05:08:26;;;;;;;21.30;10.40;;;;;;;-6.90;62.78;101664.50;78179;1298;3052783;-66
2023/02/08 05:10:53;;;;;;;21.90;9.30;;;;;;;-7.04;62.67;101664.88;79384;1295;3019071;-61
2023/02/08 05:13:19;;;;;;;17.20;8.80;;;;;;;-7.20;62.50;101668.90;79380;1298;3011572;-64
2023/02/08 05:15:47;;;;;;;24.50;9.60;;;;;;;-7.18;62.54;101665.95;78180;1295;3026993;-61
2023/02/08 05:18:13;;;;;;;22.60;9.20;;;;;;;-7.22;62.74;101668.33;79418;1297;3012915;-63
2023/02/08 05:20:40;;;;;;;26.90;11.30;;;;;;;-7.44;62.87;101672.20;79532;1295;3011543;-62
2023/02/08 05:23:08;;;;;;;20.40;10.10;;;;;;;-7.81;63.94;101679.77;78113;1296;3029312;-63
2023/02/08 05:25:37;;;;;;;21.80;10.30;;;;;;;-7.87;63.96;101684.27;79341;1294;3014652;-63
2023/02/08 05:28:04;;;;;;;23.40;9.80;;;;;;;-7.89;64.13;101692.87;79277;1295;3013467;-65
2023/02/08 05:30:32;;;;;;;23.40;10.00;;;;;;;-7.88;64.01;101690.68;77982;1301;3050289;-64
2023/02/08 05:32:59;;;;;;;20.80;9.30;;;;;;;-7.87;63.99;101691.05;79253;1300;3013166;-65
2023/02/08 05:35:25;;;;;;;21.90;10.40;;;;;;;-7.87;63.95;101687.98;79266;1300;3013359;-64
2023/02/08 05:37:53;;;;;;;22.10;9.40;;;;;;;-7.88;63.98;101688.10;78098;1294;3028407;-64
2023/02/08 05:40:20;;;;;;;24.20;9.70;;;;;;;-8.05;64.60;101681.83;79283;1296;3013263;-64
2023/02/08 05:42:47;;;;;;;31.00;10.70;;;;;;;-8.04;64.76;101684.09;79319;1295;3011682;-64
2023/02/08 05:45:15;;;;;;;24.70;10.00;;;;;;;-8.23;65.13;101687.90;78108;1298;3028374;-63
2023/02/08 05:47:41;;;;;;;20.90;10.00;;;;;;;-8.15;65.25;101691.00;79407;1298;3020546;-62
2023/02/08 05:50:09;;;;;;;21.60;9.70;;;;;;;-8.09;65.00;101696.42;79242;1298;3011606;-64
2023/02/08 05:52:37;;;;;;;27.10;11.10;;;;;;;-8.07;65.25;101693.82;78181;1295;3051280;-63
2023/02/08 05:55:04;;;;;;;23.90;10.20;;;;;;;-7.96;64.54;101696.88;79473;1294;3012930;-63
2023/02/08 05:57:31;;;;;;;23.70;10.50;;;;;;;-7.94;64.88;101698.23;79413;1298;3011580;-62
2023/02/08 05:59:58;;;;;;;27.90;11.20;;;;;;;-8.01;64.70;101697.84;78141;1298;3027968;-64
2023/02/08 06:02:25;;;;;;;20.10;9.20;;;;;;;-7.94;64.71;101694.14;79406;1295;3018476;-63
2023/02/08 06:04:51;;;;;;;20.10;8.50;;;;;;;-7.96;64.59;101697.42;79359;1295;3011756;-63
2023/02/08 06:07:19;;;;;;;19.90;9.20;;;;;;;-7.87;64.95;101692.95;78131;1298;3029642;-62
2023/02/08 06:09:46;;;;;;;21.10;8.00;;;;;;;-7.82;64.39;101695.05;79350;1296;3013667;-63
2023/02/08 06:12:13;;;;;;;27.30;11.30;;;;;;;-7.80;64.31;101689.67;79400;1295;3011488;-63
2023/02/08 06:14:43;;;;;;;28.10;9.90;;;;;;;-7.81;64.64;101698.70;78145;1297;3049895;-61
2023/02/08 06:17:10;;;;;;;19.50;9.10;;;;;;;-7.78;64.71;101702.38;79422;1298;3013518;-62
2023/02/08 06:19:37;;;;;;;23.00;9.50;;;;;;;-7.73;64.29;101707.75;79353;1298;3013563;-62
2023/02/08 06:22:05;;;;;;;23.40;8.50;;;;;;;-7.67;64.08;101709.23;78143;1298;3028609;-63
2023/02/08 06:24:32;;;;;;;22.00;10.20;;;;;;;-7.71;64.35;101708.54;77975;1298;3035673;-62
2023/02/08 06:26:58;;;;;;;23.40;10.20;;;;;;;-7.60;64.13;101713.84;79420;1295;3011870;-63
2023/02/08 06:29:27;;;;;;;17.80;8.30;;;;;;;-7.57;64.08;101709.55;78900;1298;3013572;-64
2023/02/08 06:31:54;;;;;;;19.10;8.60;;;;;;;-7.47;63.71;101716.01;79462;1297;3013297;-63
2023/02/08 06:34:21;;;;;;;20.40;9.60;;;;;;;-7.51;63.66;101715.98;79545;1297;3013518;-64
2023/02/08 06:36:49;;;;;;;21.40;9.00;;;;;;;-7.42;63.11;101720.69;78199;1295;3026297;-63
2023/02/08 06:39:16;;;;;;;19.00;8.40;;;;;;;-7.48;62.99;101729.58;79465;1294;3014038;-62
2023/02/08 06:41:43;;;;;;;21.20;10.40;;;;;;;-7.49;63.06;101731.93;79480;1295;3011668;-65
2023/02/08 06:44:11;;;;;;;16.80;8.00;;;;;;;-7.41;62.88;101731.95;78192;1298;3050760;-63
2023/02/08 06:46:38;;;;;;;21.60;8.60;;;;;;;-7.30;63.18;101736.93;79377;1300;3020578;-63
2023/02/08 06:49:04;;;;;;;23.70;9.90;;;;;;;-7.37;63.05;101739.48;79556;1295;3011496;-62
2023/02/08 06:51:35;;;;;;;23.70;10.00;;;;;;;-7.31;62.96;101736.86;78147;1300;3051504;-65
2023/02/08 06:54:02;;;;;;;22.60;9.00;;;;;;;-7.30;62.73;101735.02;79333;1299;3013679;-63
2023/02/08 06:56:28;;;;;;;25.00;11.00;;;;;;;-7.44;63.33;101744.60;79414;1297;3011714;-64
2023/02/08 06:58:56;;;;;;;20.40;9.10;;;;;;;-7.28;62.75;101747.91;78318;1298;3025856;-63
2023/02/08 07:01:23;;;;;;;23.20;9.50;;;;;;;-7.08;62.17;101754.50;79470;1298;3013270;-65
2023/02/08 07:03:49;;;;;;;23.90;10.30;;;;;;;-7.19;62.61;101754.16;79357;1295;3011592;-64
2023/02/08 07:06:18;;;;;;;22.20;9.40;;;;;;;-7.12;62.48;101756.16;78115;1298;3030052;-61
2023/02/08 07:08:45;;;;;;;19.50;9.20;;;;;;;-6.89;62.62;101757.95;79483;1296;3015847;-64
2023/02/08 07:11:17;;;;;;;24.00;9.40;;;;;;;-6.78;61.70;101761.02;78141;1294;3053052;-66
2023/02/08 07:13:46;;;;;;;22.10;9.40;;;;;;;-6.75;61.58;101761.82;79578;1298;3013733;-64
2023/02/08 07:16:14;;;;;;;27.10;10.40;;;;;;;-6.77;61.61;101760.39;78225;1298;3027267;-65
2023/02/08 07:18:41;;;;;;;25.10;10.60;;;;;;;-6.65;61.74;101764.66;79444;1294;3013524;-64
2023/02/08 07:21:09;;;;;;;28.00;10.00;;;;;;;-6.39;61.17;101755.27;79356;1298;3013243;-64
2023/02/08 07:23:38;;;;;;;26.50;9.20;;;;;;;-6.28;61.08;101755.61;77979;1295;3055993;-65
2023/02/08 07:26:06;;;;;;;19.80;9.50;;;;;;;-6.19;60.83;101755.13;79385;1296;3014737;-62
2023/02/08 07:28:35;;;;;;;26.20;10.20;;;;;;;-6.25;61.05;101756.73;78780;1299;3011773;-65
2023/02/08 07:31:06;;;;;;;23.70;9.60;;;;;;;-6.10;60.89;101755.36;79434;1298;3018530;-65
2023/02/08 07:33:35;;;;;;;26.90;9.70;;;;;;;-5.98;60.24;101761.16;78135;1298;3053876;-63
2023/02/08 07:36:04;;;;;;;19.20;8.30;;;;;;;-5.84;60.14;101762.07;79417;1298;3018692;-63
2023/02/08 07:38:32;;;;;;;23.90;10.10;;;;;;;-5.76;59.91;101756.96;79449;1295;3011601;-62
2023/02/08 07:41:06;;;;;;;20.30;9.20;;;;;;;-5.61;59.31;101759.97;78112;1300;3049837;-64
2023/02/08 07:43:32;;;;;;;;;;;;;;;-5.47;58.91;101756.80;79541;1294;3011429;-64
2023/02/08 07:46:08;;;;;;;14.50;6.70;;;;;;;-5.40;58.72;101758.48;77972;1300;3051036;-63
2023/02/08 07:48:36;;;;;;;21.60;8.80;;;;;;;-5.41;58.59;101763.02;78275;1297;3053215;-63
2023/02/08 07:51:03;;;;;;;21.60;9.40;;;;;;;-5.30;59.04;101770.15;79436;1298;3012972;-64
2023/02/08 07:53:30;;;;;;;21.60;9.10;;;;;;;-5.24;58.51;101766.96;79387;1298;3012181;-64
2023/02/08 07:55:58;;;;;;;20.50;8.50;;;;;;;-5.04;58.65;101768.45;78256;1298;3029681;-65
2023/02/08 07:58:24;;;;;;;18.00;8.40;;;;;;;-4.91;58.16;101770.71;79476;1295;3013109;-63
2023/02/08 08:00:51;;;;;;;22.40;8.60;;;;;;;-4.82;57.59;101779.56;79553;1294;3012918;-62
2023/02/08 08:03:19;;;;;;;21.20;8.10;;;;;;;-4.82;57.30;101778.54;78192;1298;3029735;-63
2023/02/08 08:05:45;;;;;;;18.50;8.90;;;;;;;-4.73;57.64;101773.57;79488;1298;3019248;-64
2023/02/08 08:08:12;;;;;;;18.90;8.00;;;;;;;-4.85;57.12;101777.59;79460;1298;3013649;-65
2023/02/08 08:10:40;;;;;;;16.90;7.20;;;;;;;-4.75;57.07;101781.23;78221;1298;3029750;-63
2023/02/08 08:13:08;;;;;;;16.50;7.50;;;;;;;-4.63;56.95;101785.46;79429;1295;3011942;-66
2023/02/08 08:15:35;;;;;;;17.00;6.90;;;;;;;-4.55;56.39;101787.48;79632;1297;3011635;-66
2023/02/08 08:18:03;;;;;;;16.00;6.70;;;;;;;-4.56;56.54;101791.67;78466;1298;3052883;-63
2023/02/08 08:20:31;;;;;;;12.90;7.00;;;;;;;-4.34;56.03;101798.85;79464;1298;3014955;-63
2023/02/08 08:22:57;;;;;;;17.40;7.90;;;;;;;-4.16;56.03;101800.36;79508;1298;3013012;-64
2023/02/08 08:25:25;;;;;;;14.10;6.40;;;;;;;-3.95;55.50;101794.11;78134;1294;3056526;-65
2023/02/08 08:27:53;;;;;;;14.80;7.20;;;;;;;-3.98;55.30;101790.92;79441;1294;3013614;-64
2023/02/08 08:30:20;;;;;;;17.00;7.40;;;;;;;-3.98;55.14;101796.23;79451;1297;3013632;-65
2023/02/08 08:32:49;;;;;;;13.10;6.70;;;;;;;-3.89;54.86;101795.37;78338;1297;3053068;-63
2023/02/08 08:35:16;;;;;;;15.60;7.00;;;;;;;-3.70;54.67;101799.30;79397;1295;3012622;-64
2023/02/08 08:37:43;;;;;;;13.60;6.50;;;;;;;-3.87;54.43;101800.58;79518;1295;3011452;-65
2023/02/08 08:40:11;;;;;;;23.00;7.50;;;;;;;-3.95;54.66;101804.05;78123;1298;3029310;-63
2023/02/08 08:42:38;;;;;;;17.40;6.80;;;;;;;-3.92;55.19;101799.52;79441;1295;3012937;-64
2023/02/08 08:45:06;;;;;;;17.50;7.90;;;;;;;-3.66;54.33;101803.34;79426;1295;3011918;-62
2023/02/08 08:47:35;;;;;;;17.20;6.80;;;;;;;-3.67;54.16;101806.07;78096;1298;3052332;-62
2023/02/08 08:50:02;;;;;;;14.10;6.40;;;;;;;-3.49;53.49;101810.46;79350;1298;3013820;-62
2023/02/08 08:52:28;;;;;;;14.50;6.70;;;;;;;-3.32;53.55;101809.99;79376;1295;3013179;-63
2023/02/08 08:54:56;;;;;;;13.40;5.90;;;;;;;-3.23;53.29;101800.36;78105;1298;3028957;-65
2023/02/08 08:57:22;;;;;;;15.80;6.10;;;;;;;-3.01;53.19;101798.86;80078;1294;3018362;-64
2023/02/08 08:59:49;;;;;;;13.30;6.20;;;;;;;-2.89;52.63;101794.95;79526;1296;3013035;-61
2023/02/08 09:02:17;;;;;;;13.90;5.80;;;;;;;-2.83;51.83;101796.50;78174;1298;3029432;-63
2023/02/08 09:04:43;;;;;;;14.80;6.30;;;;;;;-2.65;52.19;101795.19;79705;1298;3013522;-63
2023/02/08 09:07:10;;;;;;;16.80;7.80;;;;;;;-2.57;52.11;101794.39;79418;1297;3012370;-65
2023/02/08 09:09:39;;;;;;;15.30;6.50;;;;;;;-2.52;51.74;101794.89;78146;1298;3026209;-64
2023/02/08 09:12:06;;;;;;;16.10;7.40;;;;;;;-2.35;51.41;101796.08;79485;1296;3013320;-63
2023/02/08 09:14:33;;;;;;;12.00;6.20;;;;;;;-2.24;51.52;101791.42;79389;1298;3011854;-63
2023/02/08 09:17:03;;;;;;;13.00;5.90;;;;;;;-2.23;51.06;101790.58;78251;1298;3052865;-66
2023/02/08 09:19:30;;;;;;;13.40;6.40;;;;;;;-2.29;50.80;101799.52;79366;1298;3013670;-65
2023/02/08 09:21:59;;;;;;;11.70;5.30;;;;;;;-2.20;50.82;101790.50;79253;1299;3012014;-64
2023/02/08 09:24:27;;;;;;;13.70;6.80;;;;;;;-1.97;50.78;101789.95;78075;1298;3057544;-63
2023/02/08 09:26:53;;;;;;;15.20;6.30;;;;;;;-1.88;50.17;101789.16;79330;1295;3012884;-63
2023/02/08 09:29:20;;;;;;;13.20;6.20;;;;;;;-1.73;49.75;101791.12;79655;1298;3011591;-65
2023/02/08 09:31:48;;;;;;;12.90;6.10;;;;;;;-1.63;49.65;101784.52;78077;1298;3028177;-65
2023/02/08 09:34:14;;;;;;;13.00;6.10;;;;;;;-1.46;49.46;101787.36;79623;1295;3012898;-64
2023/02/08 09:36:41;;;;;;;11.60;5.40;;;;;;;-1.34;49.44;101789.20;79610;1298;3013371;-63
2023/02/08 09:39:12;;;;;;;12.40;6.00;;;;;;;-1.47;48.60;101790.09;78228;1298;3026171;-65
2023/02/08 09:41:55;;;;;;;12.40;5.80;;;;;;;-1.85;49.01;101785.13;79431;1298;3011456;-63
2023/02/08 09:44:36;;;;;;;11.60;5.60;;;;;;;-1.66;48.72;101785.98;78110;1301;3054788;-63
2023/02/08 09:47:17;;;;;;;12.70;5.80;;;;;;;-1.53;48.72;101783.92;78189;1297;3050169;-64
2023/02/08 09:50:19;;;;;;;13.50;6.10;;;;;;;-1.44;48.58;101784.50;78328;1298;3053874;-64
2023/02/08 09:53:02;;;;;;;14.70;5.70;;;;;;;-1.48;48.74;101784.38;78159;1298;3052757;-63
2023/02/08 09:55:42;;;;;;;15.40;5.90;;;;;;;-1.43;48.76;101782.30;78183;1298;3068649;-63
2023/02/08 09:58:16;;;;;;;12.60;5.70;;;;;;;-1.49;48.74;101785.23;78289;1296;3052350;-62
2023/02/08 10:00:44;;;;;;;10.60;5.10;;;;;;;-1.28;48.73;101788.84;79405;1295;3012073;-65
2023/02/08 10:03:21;;;;;;;12.30;5.30;;;;;;;-1.21;48.53;101783.85;78204;1298;3050468;-64
2023/02/08 10:05:49;;;;;;;12.00;5.90;;;;;;;-0.92;48.05;101785.08;78235;1295;3053652;-65
2023/02/08 10:08:15;;;;;;;11.80;6.00;;;;;;;-0.85;48.14;101784.70;79489;1298;3013364;-64
2023/02/08 10:10:49;;;;;;;14.10;6.40;;;;;;;-1.04;47.80;101782.91;79389;1298;3011734;-65
2023/02/08 10:13:45;;;;;;;14.70;5.90;;;;;;;-0.85;48.11;101774.23;78159;1298;3069780;-64
2023/02/08 10:16:34;;;;;;;11.70;4.90;;;;;;;-0.73;47.45;101773.64;78162;1298;3051426;-63
2023/02/08 10:19:23;;;;;;;12.70;5.60;;;;;;;-0.38;47.33;101770.45;78150;1294;3056486;-63
2023/02/08 10:22:20;;;;;;;14.30;6.10;;;;;;;-0.39;46.45;101771.96;78178;1298;3050291;-65
2023/02/08 10:24:57;;;;;;;14.70;6.20;;;;;;;-0.24;46.26;101773.52;78142;1297;3053332;-64
2023/02/08 10:28:06;;;;;;;10.10;5.40;;;;;;;-0.06;46.14;101777.64;78383;1298;3050331;-63
2023/02/08 10:30:55;;;;;;;17.00;6.90;;;;;;;0.12;46.24;101772.83;78259;1298;3054785;-64
2023/02/08 10:33:30;;;;;;;15.80;7.10;;;;;;;0.19;46.51;101771.41;78248;1298;3052293;-64
2023/02/08 10:36:00;;;;;;;15.30;7.80;;;;;;;0.19;45.52;101769.01;78251;1295;3067993;-63
2023/02/08 10:38:29;;;;;;;18.30;7.70;;;;;;;0.34;46.46;101766.52;79257;1301;3012944;-63
2023/02/08 10:40:57;;;;;;;16.60;7.70;;;;;;;0.37;45.72;101766.58;79568;1296;3012140;-64
2023/02/08 10:43:37;;;;;;;17.50;7.80;;;;;;;0.17;45.78;101768.77;78267;1295;3054888;-63
2023/02/08 10:46:25;;;;;;;22.80;8.50;;;;;;;-0.02;45.85;101767.03;78234;1297;3050477;-63
2023/02/08 10:49:02;;;;;;;16.10;7.90;;;;;;;-0.08;45.91;101764.17;78191;1298;3052525;-62
2023/02/08 10:51:30;;;;;;;16.80;6.50;;;;;;;-0.03;45.89;101764.10;78198;1298;3052532;-63
2023/02/08 10:53:57;;;;;;;16.10;6.90;;;;;;;0.09;46.04;101758.80;79530;1297;3013450;-64
2023/02/08 10:56:34;;;;;;;18.10;7.60;;;;;;;0.30;45.28;101758.33;79714;1295;3011873;-63
2023/02/08 10:59:20;;;;;;;21.10;8.40;;;;;;;0.20;45.12;101757.98;78244;1298;3049219;-63
2023/02/08 11:01:48;;;;;;;14.10;6.80;;;;;;;0.28;45.27;101758.65;78204;1298;3054142;-63
2023/02/08 11:04:15;;;;;;;15.60;7.30;;;;;;;0.11;45.52;101757.80;79430;1298;3012950;-65
2023/02/08 11:06:43;;;;;;;18.30;8.20;;;;;;;-0.13;45.67;101754.24;79486;1298;3013087;-63
2023/02/08 11:09:21;;;;;;;13.60;6.70;;;;;;;0.07;45.84;101760.68;78280;1297;3027331;-64
2023/02/08 11:11:51;;;;;;;14.90;6.70;;;;;;;0.13;45.82;101756.14;78192;1298;3053167;-63
2023/02/08 11:14:24;;;;;;;14.60;5.90;;;;;;;0.35;45.42;101752.05;79544;1296;3012929;-62
2023/02/08 11:16:53;;;;;;;16.00;6.70;;;;;;;0.41;45.58;101752.31;78161;1298;3048557;-64
2023/02/08 11:19:34;;;;;;;15.30;5.90;;;;;;;-0.07;45.92;101750.58;79550;1298;3012945;-66
2023/02/08 11:22:04;;;;;;;12.20;6.60;;;;;;;-0.27;46.38;101748.46;78144;1301;3054315;-62